sensor_id;sensor_type;location;lat;lon;timestamp;P1;durP1;ratioP1;P2;durP2;ratioP2
29218;SDS011;16421;50.202;7.852;2023-09-19T00:03:51;0.43;;;0.40;;
29218;SDS011;16421;50.202;7.852;2023-09-19T00:08:54;1.00;;;0.70;;
29218;SDS011;16421;50.202;7.852;2023-09-19T00:14:01;0.93;;;0.65;;
29218;SDS011;16421;50.202;7.852;2023-09-19T00:19:06;0.77;;;0.68;;
29218;SDS011;16421;50.202;7.852;2023-09-19T00:24:10;0.93;;;0.50;;
29218;SDS011;16421;50.202;7.852;2023-09-19T00:29:15;0.68;;;0.40;;
29218;SDS011;16421;50.202;7.852;2023-09-19T00:34:19;0.82;;;0.57;;
29218;SDS011;16421;50.202;7.852;2023-09-19T00:39:22;0.50;;;0.45;;
29218;SDS011;16421;50.202;7.852;2023-09-19T00:44:28;0.40;;;0.40;;
29218;SDS011;16421;50.202;7.852;2023-09-19T00:49:32;0.50;;;0.40;;
29218;SDS011;16421;50.202;7.852;2023-09-19T00:54:35;0.77;;;0.60;;
29218;SDS011;16421;50.202;7.852;2023-09-19T00:59:40;0.90;;;0.73;;
29218;SDS011;16421;50.202;7.852;2023-09-19T01:04:44;0.70;;;0.70;;
29218;SDS011;16421;50.202;7.852;2023-09-19T01:09:48;1.67;;;0.60;;
29218;SDS011;16421;50.202;7.852;2023-09-19T01:14:54;1.75;;;0.65;;
29218;SDS011;16421;50.202;7.852;2023-09-19T01:25:42;1.35;;;0.70;;
29218;SDS011;16421;50.202;7.852;2023-09-19T01:31:11;2.35;;;0.90;;
29218;SDS011;16421;50.202;7.852;2023-09-19T01:41:21;0.93;;;0.50;;
29218;SDS011;16421;50.202;7.852;2023-09-19T01:46:33;0.60;;;0.40;;
29218;SDS011;16421;50.202;7.852;2023-09-19T01:51:42;0.68;;;0.40;;
29218;SDS011;16421;50.202;7.852;2023-09-19T01:56:51;2.00;;;0.80;;
29218;SDS011;16421;50.202;7.852;2023-09-19T02:02:02;1.00;;;0.55;;
29218;SDS011;16421;50.202;7.852;2023-09-19T02:07:09;0.88;;;0.30;;
29218;SDS011;16421;50.202;7.852;2023-09-19T02:12:12;1.30;;;0.63;;
29218;SDS011;16421;50.202;7.852;2023-09-19T02:17:18;0.50;;;0.50;;
29218;SDS011;16421;50.202;7.852;2023-09-19T02:22:21;0.65;;;0.52;;
29218;SDS011;16421;50.202;7.852;2023-09-19T02:27:26;0.65;;;0.40;;
29218;SDS011;16421;50.202;7.852;2023-09-19T02:32:31;3.03;;;0.50;;
29218;SDS011;16421;50.202;7.852;2023-09-19T02:37:39;1.80;;;0.50;;
29218;SDS011;16421;50.202;7.852;2023-09-19T02:42:43;0.65;;;0.40;;
29218;SDS011;16421;50.202;7.852;2023-09-19T02:47:52;0.47;;;0.40;;
29218;SDS011;16421;50.202;7.852;2023-09-19T02:52:56;1.07;;;0.50;;
29218;SDS011;16421;50.202;7.852;2023-09-19T02:58:00;0.77;;;0.55;;
29218;SDS011;16421;50.202;7.852;2023-09-19T03:08:11;0.88;;;0.60;;
29218;SDS011;16421;50.202;7.852;2023-09-19T03:13:16;1.50;;;0.33;;
29218;SDS011;16421;50.202;7.852;2023-09-19T03:18:23;0.73;;;0.60;;
29218;SDS011;16421;50.202;7.852;2023-09-19T03:23:28;0.50;;;0.35;;
29218;SDS011;16421;50.202;7.852;2023-09-19T03:28:33;0.63;;;0.50;;
29218;SDS011;16421;50.202;7.852;2023-09-19T03:33:38;1.15;;;0.55;;
29218;SDS011;16421;50.202;7.852;2023-09-19T03:38:42;1.08;;;0.50;;
29218;SDS011;16421;50.202;7.852;2023-09-19T03:43:45;2.08;;;0.60;;
29218;SDS011;16421;50.202;7.852;2023-09-19T03:48:51;1.10;;;0.80;;
29218;SDS011;16421;50.202;7.852;2023-09-19T03:53:56;1.48;;;0.68;;
29218;SDS011;16421;50.202;7.852;2023-09-19T03:58:59;2.53;;;0.85;;
29218;SDS011;16421;50.202;7.852;2023-09-19T04:04:04;4.70;;;0.93;;
29218;SDS011;16421;50.202;7.852;2023-09-19T04:09:11;2.10;;;1.15;;
29218;SDS011;16421;50.202;7.852;2023-09-19T04:14:14;1.20;;;0.82;;
29218;SDS011;16421;50.202;7.852;2023-09-19T04:19:19;2.05;;;1.00;;
29218;SDS011;16421;50.202;7.852;2023-09-19T04:24:23;2.65;;;1.08;;
29218;SDS011;16421;50.202;7.852;2023-09-19T04:29:27;4.40;;;1.35;;
29218;SDS011;16421;50.202;7.852;2023-09-19T04:34:32;2.08;;;1.10;;
29218;SDS011;16421;50.202;7.852;2023-09-19T04:39:36;2.87;;;1.07;;
29218;SDS011;16421;50.202;7.852;2023-09-19T04:44:40;3.20;;;1.23;;
29218;SDS011;16421;50.202;7.852;2023-09-19T04:49:45;1.08;;;0.70;;
29218;SDS011;16421;50.202;7.852;2023-09-19T04:54:48;2.30;;;0.88;;
29218;SDS011;16421;50.202;7.852;2023-09-19T04:59:52;1.58;;;0.70;;
29218;SDS011;16421;50.202;7.852;2023-09-19T05:04:57;0.90;;;0.40;;
29218;SDS011;16421;50.202;7.852;2023-09-19T05:10:01;1.45;;;0.60;;
29218;SDS011;16421;50.202;7.852;2023-09-19T05:15:08;3.17;;;0.70;;
29218;SDS011;16421;50.202;7.852;2023-09-19T05:20:13;1.08;;;0.45;;
29218;SDS011;16421;50.202;7.852;2023-09-19T05:25:25;0.65;;;0.50;;
29218;SDS011;16421;50.202;7.852;2023-09-19T05:30:30;2.63;;;0.93;;
29218;SDS011;16421;50.202;7.852;2023-09-19T05:35:36;2.92;;;0.90;;
29218;SDS011;16421;50.202;7.852;2023-09-19T05:45:44;1.73;;;1.13;;
29218;SDS011;16421;50.202;7.852;2023-09-19T05:50:49;1.33;;;0.60;;
29218;SDS011;16421;50.202;7.852;2023-09-19T05:55:53;2.20;;;1.00;;
29218;SDS011;16421;50.202;7.852;2023-09-19T06:00:56;2.85;;;1.30;;
29218;SDS011;16421;50.202;7.852;2023-09-19T06:06:02;2.20;;;0.95;;
29218;SDS011;16421;50.202;7.852;2023-09-19T06:11:07;3.63;;;1.52;;
29218;SDS011;16421;50.202;7.852;2023-09-19T06:16:11;2.95;;;0.82;;
29218;SDS011;16421;50.202;7.852;2023-09-19T06:21:16;1.20;;;0.77;;
29218;SDS011;16421;50.202;7.852;2023-09-19T06:26:19;3.03;;;1.23;;
29218;SDS011;16421;50.202;7.852;2023-09-19T06:31:23;4.57;;;1.60;;
29218;SDS011;16421;50.202;7.852;2023-09-19T06:36:29;2.67;;;1.45;;
29218;SDS011;16421;50.202;7.852;2023-09-19T06:41:32;5.88;;;1.60;;
29218;SDS011;16421;50.202;7.852;2023-09-19T06:46:40;3.42;;;1.20;;
29218;SDS011;16421;50.202;7.852;2023-09-19T06:51:47;3.33;;;1.37;;
29218;SDS011;16421;50.202;7.852;2023-09-19T06:56:51;6.63;;;1.83;;
29218;SDS011;16421;50.202;7.852;2023-09-19T07:01:56;5.72;;;1.80;;
29218;SDS011;16421;50.202;7.852;2023-09-19T07:07:02;2.97;;;1.40;;
29218;SDS011;16421;50.202;7.852;2023-09-19T07:12:06;6.90;;;2.00;;
29218;SDS011;16421;50.202;7.852;2023-09-19T07:17:09;4.78;;;1.52;;
29218;SDS011;16421;50.202;7.852;2023-09-19T07:22:15;3.20;;;1.08;;
29218;SDS011;16421;50.202;7.852;2023-09-19T07:27:19;6.05;;;1.58;;
29218;SDS011;16421;50.202;7.852;2023-09-19T07:32:23;6.53;;;1.80;;
29218;SDS011;16421;50.202;7.852;2023-09-19T07:37:28;3.65;;;1.52;;
29218;SDS011;16421;50.202;7.852;2023-09-19T07:42:34;5.78;;;1.90;;
29218;SDS011;16421;50.202;7.852;2023-09-19T07:47:43;6.65;;;1.85;;
29218;SDS011;16421;50.202;7.852;2023-09-19T07:52:49;4.75;;;1.95;;
29218;SDS011;16421;50.202;7.852;2023-09-19T07:57:53;3.60;;;1.60;;
29218;SDS011;16421;50.202;7.852;2023-09-19T08:02:57;5.35;;;1.85;;
29218;SDS011;16421;50.202;7.852;2023-09-19T08:08:05;6.45;;;2.05;;
29218;SDS011;16421;50.202;7.852;2023-09-19T08:13:09;4.35;;;1.70;;
29218;SDS011;16421;50.202;7.852;2023-09-19T08:18:15;4.97;;;1.90;;
29218;SDS011;16421;50.202;7.852;2023-09-19T08:23:20;5.57;;;2.05;;
29218;SDS011;16421;50.202;7.852;2023-09-19T08:28:23;4.93;;;1.52;;
29218;SDS011;16421;50.202;7.852;2023-09-19T08:33:27;6.43;;;2.20;;
29218;SDS011;16421;50.202;7.852;2023-09-19T08:38:33;4.80;;;2.17;;
29218;SDS011;16421;50.202;7.852;2023-09-19T08:43:38;4.28;;;1.48;;
29218;SDS011;16421;50.202;7.852;2023-09-19T08:48:44;6.00;;;1.50;;
29218;SDS011;16421;50.202;7.852;2023-09-19T08:53:54;4.95;;;1.63;;
29218;SDS011;16421;50.202;7.852;2023-09-19T08:59:08;3.13;;;1.30;;
29218;SDS011;16421;50.202;7.852;2023-09-19T09:04:12;5.88;;;2.13;;
29218;SDS011;16421;50.202;7.852;2023-09-19T09:09:17;8.15;;;1.80;;
29218;SDS011;16421;50.202;7.852;2023-09-19T09:14:22;5.13;;;1.63;;
29218;SDS011;16421;50.202;7.852;2023-09-19T09:19:25;6.45;;;1.90;;
29218;SDS011;16421;50.202;7.852;2023-09-19T09:24:31;8.15;;;2.35;;
29218;SDS011;16421;50.202;7.852;2023-09-19T09:29:41;4.35;;;1.48;;
29218;SDS011;16421;50.202;7.852;2023-09-19T09:34:45;3.17;;;1.38;;
29218;SDS011;16421;50.202;7.852;2023-09-19T09:39:52;4.93;;;1.87;;
29218;SDS011;16421;50.202;7.852;2023-09-19T09:45:12;5.78;;;1.70;;
29218;SDS011;16421;50.202;7.852;2023-09-19T09:50:23;5.43;;;1.95;;
29218;SDS011;16421;50.202;7.852;2023-09-19T09:55:33;7.72;;;2.00;;
29218;SDS011;16421;50.202;7.852;2023-09-19T10:01:01;7.95;;;1.50;;
29218;SDS011;16421;50.202;7.852;2023-09-19T10:06:10;6.90;;;1.95;;
29218;SDS011;16421;50.202;7.852;2023-09-19T10:11:28;6.72;;;1.95;;
29218;SDS011;16421;50.202;7.852;2023-09-19T10:16:32;5.70;;;1.30;;
29218;SDS011;16421;50.202;7.852;2023-09-19T10:21:37;9.55;;;2.63;;
29218;SDS011;16421;50.202;7.852;2023-09-19T10:26:42;8.27;;;2.08;;
29218;SDS011;16421;50.202;7.852;2023-09-19T10:36:51;6.40;;;2.33;;
29218;SDS011;16421;50.202;7.852;2023-09-19T10:41:58;6.43;;;2.08;;
29218;SDS011;16421;50.202;7.852;2023-09-19T10:47:06;6.35;;;2.03;;
29218;SDS011;16421;50.202;7.852;2023-09-19T10:52:11;4.93;;;1.80;;
29218;SDS011;16421;50.202;7.852;2023-09-19T10:57:19;4.60;;;1.67;;
29218;SDS011;16421;50.202;7.852;2023-09-19T11:02:25;3.40;;;1.45;;
29218;SDS011;16421;50.202;7.852;2023-09-19T11:07:28;4.20;;;1.73;;
29218;SDS011;16421;50.202;7.852;2023-09-19T11:12:50;7.93;;;2.47;;
29218;SDS011;16421;50.202;7.852;2023-09-19T11:17:55;5.97;;;1.70;;
29218;SDS011;16421;50.202;7.852;2023-09-19T11:23:18;5.97;;;1.52;;
29218;SDS011;16421;50.202;7.852;2023-09-19T11:28:28;4.68;;;1.80;;
29218;SDS011;16421;50.202;7.852;2023-09-19T11:33:37;5.78;;;1.80;;
29218;SDS011;16421;50.202;7.852;2023-09-19T11:38:57;5.78;;;1.77;;
29218;SDS011;16421;50.202;7.852;2023-09-19T11:49:38;4.33;;;1.60;;
29218;SDS011;16421;50.202;7.852;2023-09-19T11:54:44;2.92;;;1.20;;
29218;SDS011;16421;50.202;7.852;2023-09-19T11:59:54;5.45;;;1.73;;
29218;SDS011;16421;50.202;7.852;2023-09-19T12:04:59;5.18;;;1.83;;
29218;SDS011;16421;50.202;7.852;2023-09-19T12:10:03;4.53;;;1.50;;
29218;SDS011;16421;50.202;7.852;2023-09-19T12:15:09;4.87;;;1.77;;
29218;SDS011;16421;50.202;7.852;2023-09-19T12:20:13;3.88;;;1.33;;
29218;SDS011;16421;50.202;7.852;2023-09-19T12:25:18;3.85;;;1.40;;
29218;SDS011;16421;50.202;7.852;2023-09-19T12:30:28;2.78;;;1.35;;
29218;SDS011;16421;50.202;7.852;2023-09-19T12:35:34;6.05;;;1.38;;
29218;SDS011;16421;50.202;7.852;2023-09-19T12:40:38;5.10;;;1.85;;
29218;SDS011;16421;50.202;7.852;2023-09-19T12:45:45;5.95;;;1.80;;
29218;SDS011;16421;50.202;7.852;2023-09-19T12:56:06;5.47;;;1.50;;
29218;SDS011;16421;50.202;7.852;2023-09-19T13:01:15;4.30;;;1.30;;
29218;SDS011;16421;50.202;7.852;2023-09-19T13:06:34;3.38;;;1.48;;
29218;SDS011;16421;50.202;7.852;2023-09-19T13:11:40;6.32;;;1.45;;
29218;SDS011;16421;50.202;7.852;2023-09-19T13:16:56;3.45;;;1.10;;
29218;SDS011;16421;50.202;7.852;2023-09-19T13:22:05;4.35;;;1.63;;
29218;SDS011;16421;50.202;7.852;2023-09-19T13:27:23;4.28;;;1.45;;
29218;SDS011;16421;50.202;7.852;2023-09-19T13:32:31;4.37;;;1.40;;
29218;SDS011;16421;50.202;7.852;2023-09-19T13:37:35;2.78;;;1.10;;
29218;SDS011;16421;50.202;7.852;2023-09-19T13:42:42;4.05;;;1.20;;
29218;SDS011;16421;50.202;7.852;2023-09-19T13:47:47;2.25;;;0.90;;
29218;SDS011;16421;50.202;7.852;2023-09-19T13:52:51;3.88;;;1.25;;
29218;SDS011;16421;50.202;7.852;2023-09-19T13:57:55;3.08;;;1.02;;
29218;SDS011;16421;50.202;7.852;2023-09-19T14:03:00;3.85;;;1.20;;
29218;SDS011;16421;50.202;7.852;2023-09-19T14:08:04;3.60;;;1.10;;
29218;SDS011;16421;50.202;7.852;2023-09-19T14:13:07;2.35;;;0.90;;
29218;SDS011;16421;50.202;7.852;2023-09-19T14:18:12;4.10;;;1.23;;
29218;SDS011;16421;50.202;7.852;2023-09-19T14:23:15;4.07;;;1.17;;
29218;SDS011;16421;50.202;7.852;2023-09-19T14:28:19;2.63;;;0.93;;
29218;SDS011;16421;50.202;7.852;2023-09-19T14:33:23;3.95;;;1.42;;
29218;SDS011;16421;50.202;7.852;2023-09-19T14:38:26;2.08;;;0.98;;
29218;SDS011;16421;50.202;7.852;2023-09-19T14:43:30;5.53;;;1.23;;
29218;SDS011;16421;50.202;7.852;2023-09-19T14:48:35;2.75;;;1.05;;
29218;SDS011;16421;50.202;7.852;2023-09-19T14:53:39;5.30;;;1.30;;
29218;SDS011;16421;50.202;7.852;2023-09-19T14:58:42;1.60;;;1.00;;
29218;SDS011;16421;50.202;7.852;2023-09-19T15:03:47;3.80;;;1.30;;
29218;SDS011;16421;50.202;7.852;2023-09-19T15:08:51;2.90;;;1.30;;
29218;SDS011;16421;50.202;7.852;2023-09-19T15:13:54;3.25;;;1.10;;
29218;SDS011;16421;50.202;7.852;2023-09-19T15:18:59;3.53;;;1.10;;
29218;SDS011;16421;50.202;7.852;2023-09-19T15:24:02;3.78;;;1.20;;
29218;SDS011;16421;50.202;7.852;2023-09-19T15:29:06;3.15;;;1.00;;
29218;SDS011;16421;50.202;7.852;2023-09-19T15:34:11;2.83;;;1.00;;
29218;SDS011;16421;50.202;7.852;2023-09-19T15:39:17;4.07;;;1.20;;
29218;SDS011;16421;50.202;7.852;2023-09-19T15:44:23;2.53;;;0.75;;
29218;SDS011;16421;50.202;7.852;2023-09-19T15:49:29;2.33;;;0.75;;
29218;SDS011;16421;50.202;7.852;2023-09-19T15:54:32;1.88;;;0.80;;
29218;SDS011;16421;50.202;7.852;2023-09-19T15:59:36;2.60;;;1.23;;
29218;SDS011;16421;50.202;7.852;2023-09-19T16:04:40;2.00;;;0.82;;
29218;SDS011;16421;50.202;7.852;2023-09-19T16:09:45;1.77;;;0.90;;
29218;SDS011;16421;50.202;7.852;2023-09-19T16:14:48;1.88;;;0.88;;
29218;SDS011;16421;50.202;7.852;2023-09-19T16:19:53;2.97;;;0.90;;
29218;SDS011;16421;50.202;7.852;2023-09-19T16:24:56;2.33;;;0.63;;
29218;SDS011;16421;50.202;7.852;2023-09-19T16:30:00;1.33;;;0.85;;
29218;SDS011;16421;50.202;7.852;2023-09-19T16:35:05;1.45;;;0.60;;
29218;SDS011;16421;50.202;7.852;2023-09-19T16:40:10;0.82;;;0.60;;
29218;SDS011;16421;50.202;7.852;2023-09-19T16:45:13;2.65;;;1.00;;
29218;SDS011;16421;50.202;7.852;2023-09-19T16:50:18;1.50;;;0.70;;
29218;SDS011;16421;50.202;7.852;2023-09-19T16:55:21;1.90;;;0.47;;
29218;SDS011;16421;50.202;7.852;2023-09-19T17:00:24;1.30;;;0.80;;
29218;SDS011;16421;50.202;7.852;2023-09-19T17:05:30;1.52;;;0.40;;
29218;SDS011;16421;50.202;7.852;2023-09-19T17:10:34;2.60;;;0.70;;
29218;SDS011;16421;50.202;7.852;2023-09-19T17:15:37;2.05;;;0.50;;
29218;SDS011;16421;50.202;7.852;2023-09-19T17:20:42;2.00;;;0.63;;
29218;SDS011;16421;50.202;7.852;2023-09-19T17:25:45;1.52;;;0.57;;
29218;SDS011;16421;50.202;7.852;2023-09-19T17:30:48;0.98;;;0.57;;
29218;SDS011;16421;50.202;7.852;2023-09-19T17:35:56;1.48;;;0.55;;
29218;SDS011;16421;50.202;7.852;2023-09-19T17:41:11;0.60;;;0.40;;
29218;SDS011;16421;50.202;7.852;2023-09-19T17:46:17;2.05;;;0.43;;
29218;SDS011;16421;50.202;7.852;2023-09-19T17:51:23;1.10;;;0.45;;
29218;SDS011;16421;50.202;7.852;2023-09-19T17:56:28;1.35;;;0.50;;
29218;SDS011;16421;50.202;7.852;2023-09-19T18:01:32;0.88;;;0.40;;
29218;SDS011;16421;50.202;7.852;2023-09-19T18:06:39;1.00;;;0.50;;
29218;SDS011;16421;50.202;7.852;2023-09-19T18:11:43;0.30;;;0.30;;
29218;SDS011;16421;50.202;7.852;2023-09-19T18:16:46;0.32;;;0.28;;
29218;SDS011;16421;50.202;7.852;2023-09-19T18:21:51;0.52;;;0.40;;
29218;SDS011;16421;50.202;7.852;2023-09-19T18:26:55;1.30;;;0.50;;
29218;SDS011;16421;50.202;7.852;2023-09-19T18:31:58;1.00;;;0.43;;
29218;SDS011;16421;50.202;7.852;2023-09-19T18:37:04;1.02;;;0.50;;
29218;SDS011;16421;50.202;7.852;2023-09-19T18:42:07;1.70;;;0.68;;
29218;SDS011;16421;50.202;7.852;2023-09-19T18:47:12;0.65;;;0.50;;
29218;SDS011;16421;50.202;7.852;2023-09-19T18:52:16;1.73;;;0.50;;
29218;SDS011;16421;50.202;7.852;2023-09-19T18:57:19;0.73;;;0.50;;
29218;SDS011;16421;50.202;7.852;2023-09-19T19:02:23;0.80;;;0.60;;
29218;SDS011;16421;50.202;7.852;2023-09-19T19:07:27;0.85;;;0.60;;
29218;SDS011;16421;50.202;7.852;2023-09-19T19:12:31;2.03;;;0.57;;
29218;SDS011;16421;50.202;7.852;2023-09-19T19:17:34;0.60;;;0.45;;
29218;SDS011;16421;50.202;7.852;2023-09-19T19:22:39;0.77;;;0.57;;
29218;SDS011;16421;50.202;7.852;2023-09-19T19:27:43;0.43;;;0.43;;
29218;SDS011;16421;50.202;7.852;2023-09-19T19:32:46;1.35;;;0.40;;
29218;SDS011;16421;50.202;7.852;2023-09-19T19:37:51;0.68;;;0.47;;
29218;SDS011;16421;50.202;7.852;2023-09-19T19:42:54;0.65;;;0.52;;
29218;SDS011;16421;50.202;7.852;2023-09-19T19:47:58;0.80;;;0.32;;
29218;SDS011;16421;50.202;7.852;2023-09-19T19:53:03;0.60;;;0.47;;
29218;SDS011;16421;50.202;7.852;2023-09-19T19:58:08;1.20;;;0.68;;
29218;SDS011;16421;50.202;7.852;2023-09-19T20:03:11;1.15;;;0.50;;
29218;SDS011;16421;50.202;7.852;2023-09-19T20:08:16;1.15;;;0.50;;
29218;SDS011;16421;50.202;7.852;2023-09-19T20:13:20;0.63;;;0.47;;
29218;SDS011;16421;50.202;7.852;2023-09-19T20:18:24;2.10;;;0.40;;
29218;SDS011;16421;50.202;7.852;2023-09-19T20:23:29;1.38;;;0.50;;
29218;SDS011;16421;50.202;7.852;2023-09-19T20:33:39;2.65;;;0.90;;
29218;SDS011;16421;50.202;7.852;2023-09-19T20:38:44;0.93;;;0.65;;
29218;SDS011;16421;50.202;7.852;2023-09-19T20:43:48;2.15;;;1.00;;
29218;SDS011;16421;50.202;7.852;2023-09-19T20:48:51;2.50;;;0.90;;
29218;SDS011;16421;50.202;7.852;2023-09-19T20:53:56;1.00;;;0.75;;
29218;SDS011;16421;50.202;7.852;2023-09-19T20:59:00;0.40;;;0.40;;
29218;SDS011;16421;50.202;7.852;2023-09-19T21:04:06;1.23;;;0.50;;
29218;SDS011;16421;50.202;7.852;2023-09-19T21:09:12;0.63;;;0.40;;
29218;SDS011;16421;50.202;7.852;2023-09-19T21:19:20;3.10;;;0.50;;
29218;SDS011;16421;50.202;7.852;2023-09-19T21:24:25;0.90;;;0.60;;
29218;SDS011;16421;50.202;7.852;2023-09-19T21:29:31;1.00;;;0.55;;
29218;SDS011;16421;50.202;7.852;2023-09-19T21:34:35;0.35;;;0.30;;
29218;SDS011;16421;50.202;7.852;2023-09-19T21:39:40;0.47;;;0.40;;
29218;SDS011;16421;50.202;7.852;2023-09-19T21:44:43;0.50;;;0.30;;
29218;SDS011;16421;50.202;7.852;2023-09-19T21:49:48;0.98;;;0.40;;
29218;SDS011;16421;50.202;7.852;2023-09-19T21:54:53;2.03;;;0.70;;
29218;SDS011;16421;50.202;7.852;2023-09-19T21:59:56;1.40;;;0.63;;
29218;SDS011;16421;50.202;7.852;2023-09-19T22:05:00;1.50;;;0.60;;
29218;SDS011;16421;50.202;7.852;2023-09-19T22:10:10;0.85;;;0.50;;
29218;SDS011;16421;50.202;7.852;2023-09-19T22:15:13;1.77;;;0.67;;
29218;SDS011;16421;50.202;7.852;2023-09-19T22:20:17;1.00;;;0.57;;
29218;SDS011;16421;50.202;7.852;2023-09-19T22:25:28;0.73;;;0.40;;
29218;SDS011;16421;50.202;7.852;2023-09-19T22:30:38;1.30;;;0.50;;
29218;SDS011;16421;50.202;7.852;2023-09-19T22:35:46;0.75;;;0.50;;
29218;SDS011;16421;50.202;7.852;2023-09-19T22:40:54;0.80;;;0.40;;
29218;SDS011;16421;50.202;7.852;2023-09-19T22:46:03;2.10;;;0.30;;
29218;SDS011;16421;50.202;7.852;2023-09-19T22:51:12;0.98;;;0.40;;
29218;SDS011;16421;50.202;7.852;2023-09-19T22:56:25;0.95;;;0.50;;
29218;SDS011;16421;50.202;7.852;2023-09-19T23:01:29;0.80;;;0.45;;
29218;SDS011;16421;50.202;7.852;2023-09-19T23:06:37;0.98;;;0.60;;
29218;SDS011;16421;50.202;7.852;2023-09-19T23:11:43;1.70;;;1.02;;
29218;SDS011;16421;50.202;7.852;2023-09-19T23:16:50;0.73;;;0.50;;
29218;SDS011;16421;50.202;7.852;2023-09-19T23:21:58;0.40;;;0.30;;
29218;SDS011;16421;50.202;7.852;2023-09-19T23:27:09;2.33;;;0.80;;
29218;SDS011;16421;50.202;7.852;2023-09-19T23:32:17;1.23;;;0.50;;
29218;SDS011;16421;50.202;7.852;2023-09-19T23:37:22;0.93;;;0.40;;
29218;SDS011;16421;50.202;7.852;2023-09-19T23:42:27;1.25;;;0.60;;
29218;SDS011;16421;50.202;7.852;2023-09-19T23:47:32;1.58;;;0.47;;
29218;SDS011;16421;50.202;7.852;2023-09-19T23:52:37;1.35;;;0.50;;
29218;SDS011;16421;50.202;7.852;2023-09-19T23:57:42;1.20;;;0.40;;
